sensor_id;sensor_type;location;lat;lon;timestamp;P1;durP1;ratioP1;P2;durP2;ratioP2
52642;SDS011;38531;53.296;6.614;2023-02-13T00:01:13;1253.60;;;470.37;;
52642;SDS011;38531;53.296;6.614;2023-02-13T00:03:39;1246.33;;;466.37;;
52642;SDS011;38531;53.296;6.614;2023-02-13T00:06:05;1247.83;;;466.87;;
52642;SDS011;38531;53.296;6.614;2023-02-13T00:08:31;1301.43;;;511.40;;
52642;SDS011;38531;53.296;6.614;2023-02-13T00:10:56;1242.97;;;461.10;;
52642;SDS011;38531;53.296;6.614;2023-02-13T00:13:22;1242.87;;;468.47;;
52642;SDS011;38531;53.296;6.614;2023-02-13T00:15:55;1272.90;;;462.67;;
52642;SDS011;38531;53.296;6.614;2023-02-13T00:18:22;1228.70;;;459.40;;
52642;SDS011;38531;53.296;6.614;2023-02-13T00:21:05;1240.30;;;463.27;;
52642;SDS011;38531;53.296;6.614;2023-02-13T00:23:33;1288.53;;;511.20;;
52642;SDS011;38531;53.296;6.614;2023-02-13T00:26:00;1305.87;;;519.83;;
52642;SDS011;38531;53.296;6.614;2023-02-13T00:28:29;1228.37;;;460.10;;
52642;SDS011;38531;53.296;6.614;2023-02-13T00:31:01;1248.13;;;460.23;;
52642;SDS011;38531;53.296;6.614;2023-02-13T00:33:27;1237.43;;;462.67;;
52642;SDS011;38531;53.296;6.614;2023-02-13T00:36:00;1266.27;;;512.17;;
52642;SDS011;38531;53.296;6.614;2023-02-13T00:38:28;1217.67;;;462.83;;
52642;SDS011;38531;53.296;6.614;2023-02-13T00:40:54;1229.00;;;467.47;;
52642;SDS011;38531;53.296;6.614;2023-02-13T00:43:20;1324.40;;;509.73;;
52642;SDS011;38531;53.296;6.614;2023-02-13T00:45:45;1271.23;;;511.60;;
52642;SDS011;38531;53.296;6.614;2023-02-13T00:48:11;1263.07;;;517.17;;
52642;SDS011;38531;53.296;6.614;2023-02-13T00:50:36;1290.27;;;514.23;;
52642;SDS011;38531;53.296;6.614;2023-02-13T00:53:02;1253.43;;;517.80;;
52642;SDS011;38531;53.296;6.614;2023-02-13T00:55:28;1243.53;;;520.77;;
52642;SDS011;38531;53.296;6.614;2023-02-13T00:57:54;1210.67;;;463.17;;
52642;SDS011;38531;53.296;6.614;2023-02-13T01:00:19;1252.73;;;461.50;;
52642;SDS011;38531;53.296;6.614;2023-02-13T01:02:45;1214.33;;;457.77;;
52642;SDS011;38531;53.296;6.614;2023-02-13T01:05:12;1263.97;;;514.90;;
52642;SDS011;38531;53.296;6.614;2023-02-13T01:07:38;1235.87;;;509.57;;
52642;SDS011;38531;53.296;6.614;2023-02-13T01:10:04;1277.43;;;459.90;;
52642;SDS011;38531;53.296;6.614;2023-02-13T01:12:30;1244.13;;;517.13;;
52642;SDS011;38531;53.296;6.614;2023-02-13T01:14:56;1252.03;;;510.80;;
52642;SDS011;38531;53.296;6.614;2023-02-13T01:17:22;1284.93;;;512.37;;
52642;SDS011;38531;53.296;6.614;2023-02-13T01:19:47;1213.00;;;434.50;;
52642;SDS011;38531;53.296;6.614;2023-02-13T01:22:13;1223.70;;;443.33;;
52642;SDS011;38531;53.296;6.614;2023-02-13T01:24:39;1210.70;;;432.53;;
52642;SDS011;38531;53.296;6.614;2023-02-13T01:27:04;1264.13;;;506.30;;
52642;SDS011;38531;53.296;6.614;2023-02-13T01:29:30;1260.83;;;504.10;;
52642;SDS011;38531;53.296;6.614;2023-02-13T01:31:56;1225.30;;;497.23;;
52642;SDS011;38531;53.296;6.614;2023-02-13T01:34:21;1233.93;;;497.53;;
52642;SDS011;38531;53.296;6.614;2023-02-13T01:36:47;1206.97;;;492.93;;
52642;SDS011;38531;53.296;6.614;2023-02-13T01:39:12;1263.50;;;439.67;;
52642;SDS011;38531;53.296;6.614;2023-02-13T01:41:38;1276.03;;;500.83;;
52642;SDS011;38531;53.296;6.614;2023-02-13T01:44:43;1190.00;;;423.43;;
52642;SDS011;38531;53.296;6.614;2023-02-13T01:47:08;1239.40;;;495.47;;
52642;SDS011;38531;53.296;6.614;2023-02-13T01:49:36;1178.80;;;406.70;;
52642;SDS011;38531;53.296;6.614;2023-02-13T01:52:02;1185.17;;;414.47;;
52642;SDS011;38531;53.296;6.614;2023-02-13T01:54:28;1166.37;;;403.83;;
52642;SDS011;38531;53.296;6.614;2023-02-13T01:57:02;1190.33;;;494.40;;
52642;SDS011;38531;53.296;6.614;2023-02-13T02:00:10;1174.77;;;488.60;;
52642;SDS011;38531;53.296;6.614;2023-02-13T02:02:33;1177.50;;;488.77;;
52642;SDS011;38531;53.296;6.614;2023-02-13T02:05:03;1156.67;;;487.43;;
52642;SDS011;38531;53.296;6.614;2023-02-13T02:07:31;1120.43;;;390.13;;
52642;SDS011;38531;53.296;6.614;2023-02-13T02:10:08;1112.80;;;393.97;;
52642;SDS011;38531;53.296;6.614;2023-02-13T02:15:24;1120.00;;;489.87;;
52642;SDS011;38531;53.296;6.614;2023-02-13T02:17:50;1086.63;;;388.57;;
52642;SDS011;38531;53.296;6.614;2023-02-13T02:45:51;1094.87;;;484.37;;
52642;SDS011;38531;53.296;6.614;2023-02-13T02:48:54;1071.37;;;486.63;;
52642;SDS011;38531;53.296;6.614;2023-02-13T02:51:47;1088.23;;;485.73;;
52642;SDS011;38531;53.296;6.614;2023-02-13T02:54:20;1083.73;;;483.53;;
52642;SDS011;38531;53.296;6.614;2023-02-13T02:57:29;1112.50;;;484.03;;
52642;SDS011;38531;53.296;6.614;2023-02-13T03:00:17;1076.07;;;393.33;;
52642;SDS011;38531;53.296;6.614;2023-02-13T03:03:04;1085.77;;;485.20;;
52642;SDS011;38531;53.296;6.614;2023-02-13T03:06:03;1066.90;;;483.17;;
52642;SDS011;38531;53.296;6.614;2023-02-13T03:08:39;1075.32;;;486.60;;
52642;SDS011;38531;53.296;6.614;2023-02-13T03:11:26;1063.83;;;393.37;;
52642;SDS011;38531;53.296;6.614;2023-02-13T03:14:19;1084.97;;;390.70;;
52642;SDS011;38531;53.296;6.614;2023-02-13T03:16:45;1091.43;;;484.50;;
52642;SDS011;38531;53.296;6.614;2023-02-13T03:28:35;1120.03;;;397.43;;
52642;SDS011;38531;53.296;6.614;2023-02-13T03:33:58;1093.60;;;400.50;;
52642;SDS011;38531;53.296;6.614;2023-02-13T03:36:33;1122.53;;;488.87;;
52642;SDS011;38531;53.296;6.614;2023-02-13T03:45:01;1110.83;;;487.00;;
52642;SDS011;38531;53.296;6.614;2023-02-13T03:48:00;1100.03;;;401.67;;
52642;SDS011;38531;53.296;6.614;2023-02-13T03:50:35;1123.00;;;400.77;;
52642;SDS011;38531;53.296;6.614;2023-02-13T03:53:05;945.20;;;506.67;;
52642;SDS011;38531;53.296;6.614;2023-02-13T03:55:37;592.13;;;170.83;;
52642;SDS011;38531;53.296;6.614;2023-02-13T03:58:28;8.80;;;4.50;;
52642;SDS011;38531;53.296;6.614;2023-02-13T04:01:18;10.43;;;4.80;;
52642;SDS011;38531;53.296;6.614;2023-02-13T04:03:51;8.65;;;4.70;;
52642;SDS011;38531;53.296;6.614;2023-02-13T04:06:34;10.80;;;5.18;;
52642;SDS011;38531;53.296;6.614;2023-02-13T04:09:06;8.45;;;4.30;;
52642;SDS011;38531;53.296;6.614;2023-02-13T04:11:36;9.52;;;4.80;;
52642;SDS011;38531;53.296;6.614;2023-02-13T04:14:18;10.35;;;4.95;;
52642;SDS011;38531;53.296;6.614;2023-02-13T04:16:52;10.05;;;4.95;;
52642;SDS011;38531;53.296;6.614;2023-02-13T04:19:30;10.60;;;4.65;;
52642;SDS011;38531;53.296;6.614;2023-02-13T04:21:58;11.25;;;5.30;;
52642;SDS011;38531;53.296;6.614;2023-02-13T04:24:25;9.48;;;4.50;;
52642;SDS011;38531;53.296;6.614;2023-02-13T04:26:52;11.02;;;4.65;;
52642;SDS011;38531;53.296;6.614;2023-02-13T04:29:20;11.95;;;5.55;;
52642;SDS011;38531;53.296;6.614;2023-02-13T04:31:47;9.25;;;4.60;;
52642;SDS011;38531;53.296;6.614;2023-02-13T04:34:13;9.90;;;5.38;;
52642;SDS011;38531;53.296;6.614;2023-02-13T04:36:38;11.00;;;5.38;;
52642;SDS011;38531;53.296;6.614;2023-02-13T04:39:04;12.95;;;6.00;;
52642;SDS011;38531;53.296;6.614;2023-02-13T04:41:30;11.68;;;5.18;;
52642;SDS011;38531;53.296;6.614;2023-02-13T04:43:55;15.40;;;6.75;;
52642;SDS011;38531;53.296;6.614;2023-02-13T04:46:21;11.52;;;4.88;;
52642;SDS011;38531;53.296;6.614;2023-02-13T04:48:47;13.00;;;5.38;;
52642;SDS011;38531;53.296;6.614;2023-02-13T04:51:12;14.10;;;5.07;;
52642;SDS011;38531;53.296;6.614;2023-02-13T04:53:38;10.45;;;4.93;;
52642;SDS011;38531;53.296;6.614;2023-02-13T04:56:04;13.38;;;5.70;;
52642;SDS011;38531;53.296;6.614;2023-02-13T04:58:30;10.65;;;5.30;;
52642;SDS011;38531;53.296;6.614;2023-02-13T05:00:55;11.48;;;6.10;;
52642;SDS011;38531;53.296;6.614;2023-02-13T05:03:21;11.00;;;5.40;;
52642;SDS011;38531;53.296;6.614;2023-02-13T05:05:47;9.95;;;4.60;;
52642;SDS011;38531;53.296;6.614;2023-02-13T05:08:13;9.68;;;4.85;;
52642;SDS011;38531;53.296;6.614;2023-02-13T05:10:39;10.27;;;5.35;;
52642;SDS011;38531;53.296;6.614;2023-02-13T05:13:04;11.70;;;5.22;;
52642;SDS011;38531;53.296;6.614;2023-02-13T05:15:30;9.40;;;4.47;;
52642;SDS011;38531;53.296;6.614;2023-02-13T05:17:56;11.10;;;5.72;;
52642;SDS011;38531;53.296;6.614;2023-02-13T05:20:22;11.30;;;4.80;;
52642;SDS011;38531;53.296;6.614;2023-02-13T05:22:48;9.88;;;4.57;;
52642;SDS011;38531;53.296;6.614;2023-02-13T05:25:34;12.45;;;5.90;;
52642;SDS011;38531;53.296;6.614;2023-02-13T05:28:01;11.25;;;5.15;;
52642;SDS011;38531;53.296;6.614;2023-02-13T05:30:27;11.38;;;5.50;;
52642;SDS011;38531;53.296;6.614;2023-02-13T05:32:53;710.43;;;469.87;;
52642;SDS011;38531;53.296;6.614;2023-02-13T05:35:21;10.82;;;5.63;;
52642;SDS011;38531;53.296;6.614;2023-02-13T05:37:47;10.55;;;5.60;;
52642;SDS011;38531;53.296;6.614;2023-02-13T05:40:13;10.55;;;5.28;;
52642;SDS011;38531;53.296;6.614;2023-02-13T05:42:39;8.75;;;4.65;;
52642;SDS011;38531;53.296;6.614;2023-02-13T05:45:06;9.77;;;5.43;;
52642;SDS011;38531;53.296;6.614;2023-02-13T05:47:32;11.85;;;5.00;;
52642;SDS011;38531;53.296;6.614;2023-02-13T05:49:58;10.90;;;4.78;;
52642;SDS011;38531;53.296;6.614;2023-02-13T05:52:24;10.85;;;5.18;;
52642;SDS011;38531;53.296;6.614;2023-02-13T05:54:49;10.75;;;4.97;;
52642;SDS011;38531;53.296;6.614;2023-02-13T05:57:15;11.27;;;5.03;;
52642;SDS011;38531;53.296;6.614;2023-02-13T05:59:41;12.40;;;5.18;;
52642;SDS011;38531;53.296;6.614;2023-02-13T06:02:07;11.82;;;5.10;;
52642;SDS011;38531;53.296;6.614;2023-02-13T06:04:32;9.98;;;5.55;;
52642;SDS011;38531;53.296;6.614;2023-02-13T06:06:58;10.45;;;5.30;;
52642;SDS011;38531;53.296;6.614;2023-02-13T06:09:24;12.48;;;6.28;;
52642;SDS011;38531;53.296;6.614;2023-02-13T06:11:50;10.48;;;5.35;;
52642;SDS011;38531;53.296;6.614;2023-02-13T06:14:15;12.10;;;5.35;;
52642;SDS011;38531;53.296;6.614;2023-02-13T06:16:41;11.10;;;5.13;;
52642;SDS011;38531;53.296;6.614;2023-02-13T06:19:07;13.68;;;6.05;;
52642;SDS011;38531;53.296;6.614;2023-02-13T06:21:33;10.57;;;5.40;;
52642;SDS011;38531;53.296;6.614;2023-02-13T06:24:02;11.73;;;5.53;;
52642;SDS011;38531;53.296;6.614;2023-02-13T06:26:29;11.15;;;6.15;;
52642;SDS011;38531;53.296;6.614;2023-02-13T06:28:54;11.18;;;5.35;;
52642;SDS011;38531;53.296;6.614;2023-02-13T06:31:20;11.80;;;5.20;;
52642;SDS011;38531;53.296;6.614;2023-02-13T06:33:46;10.07;;;4.80;;
52642;SDS011;38531;53.296;6.614;2023-02-13T06:36:12;9.40;;;4.78;;
52642;SDS011;38531;53.296;6.614;2023-02-13T06:38:38;11.90;;;4.85;;
52642;SDS011;38531;53.296;6.614;2023-02-13T06:41:03;30.50;;;11.45;;
52642;SDS011;38531;53.296;6.614;2023-02-13T06:43:30;12.63;;;5.82;;
52642;SDS011;38531;53.296;6.614;2023-02-13T06:45:55;11.02;;;5.10;;
52642;SDS011;38531;53.296;6.614;2023-02-13T06:48:21;12.70;;;6.22;;
52642;SDS011;38531;53.296;6.614;2023-02-13T06:50:47;11.07;;;5.30;;
52642;SDS011;38531;53.296;6.614;2023-02-13T06:53:12;11.48;;;5.20;;
52642;SDS011;38531;53.296;6.614;2023-02-13T06:55:38;13.18;;;5.97;;
52642;SDS011;38531;53.296;6.614;2023-02-13T06:58:04;13.07;;;6.25;;
52642;SDS011;38531;53.296;6.614;2023-02-13T07:00:30;11.13;;;5.65;;
52642;SDS011;38531;53.296;6.614;2023-02-13T07:03:03;14.88;;;5.68;;
52642;SDS011;38531;53.296;6.614;2023-02-13T07:05:30;11.00;;;4.93;;
52642;SDS011;38531;53.296;6.614;2023-02-13T07:07:56;14.07;;;5.82;;
52642;SDS011;38531;53.296;6.614;2023-02-13T07:10:23;12.90;;;5.85;;
52642;SDS011;38531;53.296;6.614;2023-02-13T07:12:48;10.82;;;5.25;;
52642;SDS011;38531;53.296;6.614;2023-02-13T07:15:14;10.57;;;4.97;;
52642;SDS011;38531;53.296;6.614;2023-02-13T07:17:40;10.45;;;4.90;;
52642;SDS011;38531;53.296;6.614;2023-02-13T07:20:07;9.82;;;4.88;;
52642;SDS011;38531;53.296;6.614;2023-02-13T07:22:33;10.35;;;5.45;;
52642;SDS011;38531;53.296;6.614;2023-02-13T07:24:59;10.10;;;5.15;;
52642;SDS011;38531;53.296;6.614;2023-02-13T07:27:25;11.25;;;5.20;;
52642;SDS011;38531;53.296;6.614;2023-02-13T07:29:54;10.82;;;5.32;;
52642;SDS011;38531;53.296;6.614;2023-02-13T07:32:23;12.02;;;5.22;;
52642;SDS011;38531;53.296;6.614;2023-02-13T07:34:49;12.85;;;5.50;;
52642;SDS011;38531;53.296;6.614;2023-02-13T07:37:15;12.43;;;5.55;;
52642;SDS011;38531;53.296;6.614;2023-02-13T07:39:40;12.27;;;5.68;;
52642;SDS011;38531;53.296;6.614;2023-02-13T07:42:06;12.48;;;6.40;;
52642;SDS011;38531;53.296;6.614;2023-02-13T07:44:32;10.90;;;4.85;;
52642;SDS011;38531;53.296;6.614;2023-02-13T07:46:58;11.82;;;6.15;;
52642;SDS011;38531;53.296;6.614;2023-02-13T07:49:25;12.40;;;5.93;;
52642;SDS011;38531;53.296;6.614;2023-02-13T07:51:50;12.85;;;6.25;;
52642;SDS011;38531;53.296;6.614;2023-02-13T07:54:16;11.00;;;5.60;;
52642;SDS011;38531;53.296;6.614;2023-02-13T07:56:42;8.48;;;4.50;;
52642;SDS011;38531;53.296;6.614;2023-02-13T07:59:09;10.13;;;4.88;;
52642;SDS011;38531;53.296;6.614;2023-02-13T08:01:35;11.00;;;4.93;;
52642;SDS011;38531;53.296;6.614;2023-02-13T08:04:00;10.30;;;4.65;;
52642;SDS011;38531;53.296;6.614;2023-02-13T08:06:26;9.43;;;4.18;;
52642;SDS011;38531;53.296;6.614;2023-02-13T08:08:52;11.50;;;5.00;;
52642;SDS011;38531;53.296;6.614;2023-02-13T08:11:38;12.35;;;4.97;;
52642;SDS011;38531;53.296;6.614;2023-02-13T08:14:20;11.43;;;5.80;;
52642;SDS011;38531;53.296;6.614;2023-02-13T08:16:47;12.13;;;6.05;;
52642;SDS011;38531;53.296;6.614;2023-02-13T08:19:13;10.27;;;5.28;;
52642;SDS011;38531;53.296;6.614;2023-02-13T08:21:39;10.15;;;4.82;;
52642;SDS011;38531;53.296;6.614;2023-02-13T08:24:05;11.65;;;5.30;;
52642;SDS011;38531;53.296;6.614;2023-02-13T08:26:33;10.82;;;5.35;;
52642;SDS011;38531;53.296;6.614;2023-02-13T08:28:59;10.85;;;5.38;;
52642;SDS011;38531;53.296;6.614;2023-02-13T08:31:25;13.10;;;5.55;;
52642;SDS011;38531;53.296;6.614;2023-02-13T08:33:51;13.23;;;5.97;;
52642;SDS011;38531;53.296;6.614;2023-02-13T08:36:20;11.23;;;4.53;;
52642;SDS011;38531;53.296;6.614;2023-02-13T08:38:46;10.20;;;4.80;;
52642;SDS011;38531;53.296;6.614;2023-02-13T08:41:12;11.00;;;5.13;;
52642;SDS011;38531;53.296;6.614;2023-02-13T08:43:39;25.63;;;9.70;;
52642;SDS011;38531;53.296;6.614;2023-02-13T08:46:05;12.10;;;5.70;;
52642;SDS011;38531;53.296;6.614;2023-02-13T08:48:31;672.97;;;464.63;;
52642;SDS011;38531;53.296;6.614;2023-02-13T08:50:56;11.07;;;5.40;;
52642;SDS011;38531;53.296;6.614;2023-02-13T08:53:22;11.30;;;4.75;;
52642;SDS011;38531;53.296;6.614;2023-02-13T08:55:54;11.27;;;5.53;;
52642;SDS011;38531;53.296;6.614;2023-02-13T08:58:21;9.60;;;4.55;;
52642;SDS011;38531;53.296;6.614;2023-02-13T09:00:48;8.90;;;4.68;;
52642;SDS011;38531;53.296;6.614;2023-02-13T09:03:14;14.95;;;5.43;;
52642;SDS011;38531;53.296;6.614;2023-02-13T09:05:40;11.02;;;5.25;;
52642;SDS011;38531;53.296;6.614;2023-02-13T09:08:06;10.32;;;4.85;;
52642;SDS011;38531;53.296;6.614;2023-02-13T09:10:35;8.32;;;3.83;;
52642;SDS011;38531;53.296;6.614;2023-02-13T09:13:03;11.85;;;5.13;;
52642;SDS011;38531;53.296;6.614;2023-02-13T09:15:29;10.80;;;4.95;;
52642;SDS011;38531;53.296;6.614;2023-02-13T09:17:55;11.43;;;4.88;;
52642;SDS011;38531;53.296;6.614;2023-02-13T09:20:21;10.73;;;5.03;;
52642;SDS011;38531;53.296;6.614;2023-02-13T09:22:47;12.75;;;5.45;;
52642;SDS011;38531;53.296;6.614;2023-02-13T09:25:13;11.93;;;5.60;;
52642;SDS011;38531;53.296;6.614;2023-02-13T09:27:38;8.90;;;4.65;;
52642;SDS011;38531;53.296;6.614;2023-02-13T09:30:08;925.80;;;411.03;;
52642;SDS011;38531;53.296;6.614;2023-02-13T09:32:35;1025.07;;;515.33;;
52642;SDS011;38531;53.296;6.614;2023-02-13T09:35:02;1058.87;;;440.53;;
52642;SDS011;38531;53.296;6.614;2023-02-13T09:37:30;1057.33;;;436.07;;
52642;SDS011;38531;53.296;6.614;2023-02-13T09:39:56;1069.73;;;430.77;;
52642;SDS011;38531;53.296;6.614;2023-02-13T09:42:29;1098.10;;;422.47;;
52642;SDS011;38531;53.296;6.614;2023-02-13T09:44:59;1136.90;;;434.45;;
52642;SDS011;38531;53.296;6.614;2023-02-13T09:50:06;1036.10;;;410.47;;
52642;SDS011;38531;53.296;6.614;2023-02-13T09:52:38;845.43;;;275.20;;
52642;SDS011;38531;53.296;6.614;2023-02-13T09:55:16;842.47;;;278.13;;
52642;SDS011;38531;53.296;6.614;2023-02-13T10:00:56;791.43;;;439.50;;
52642;SDS011;38531;53.296;6.614;2023-02-13T10:03:30;794.50;;;375.77;;
52642;SDS011;38531;53.296;6.614;2023-02-13T10:06:05;713.87;;;441.63;;
52642;SDS011;38531;53.296;6.614;2023-02-13T10:16:58;625.13;;;189.07;;
52642;SDS011;38531;53.296;6.614;2023-02-13T10:19:33;587.65;;;178.93;;
52642;SDS011;38531;53.296;6.614;2023-02-13T10:22:14;554.23;;;185.43;;
52642;SDS011;38531;53.296;6.614;2023-02-13T10:25:06;573.13;;;180.27;;
52642;SDS011;38531;53.296;6.614;2023-02-13T10:27:48;553.60;;;176.37;;
52642;SDS011;38531;53.296;6.614;2023-02-13T10:30:32;580.47;;;180.77;;
52642;SDS011;38531;53.296;6.614;2023-02-13T10:33:09;468.38;;;180.02;;
52642;SDS011;38531;53.296;6.614;2023-02-13T10:35:51;521.13;;;174.97;;
52642;SDS011;38531;53.296;6.614;2023-02-13T10:38:23;562.07;;;179.47;;
52642;SDS011;38531;53.296;6.614;2023-02-13T10:43:38;531.30;;;176.23;;
52642;SDS011;38531;53.296;6.614;2023-02-13T10:52:00;502.10;;;170.73;;
52642;SDS011;38531;53.296;6.614;2023-02-13T11:00:39;489.97;;;171.30;;
52642;SDS011;38531;53.296;6.614;2023-02-13T11:03:18;499.07;;;171.90;;
52642;SDS011;38531;53.296;6.614;2023-02-13T11:05:49;551.92;;;173.25;;
52642;SDS011;38531;53.296;6.614;2023-02-13T11:10:49;530.17;;;168.87;;
52642;SDS011;38531;53.296;6.614;2023-02-13T11:13:24;559.10;;;174.03;;
52642;SDS011;38531;53.296;6.614;2023-02-13T11:16:04;559.10;;;176.10;;
52642;SDS011;38531;53.296;6.614;2023-02-13T11:18:32;526.27;;;173.37;;
52642;SDS011;38531;53.296;6.614;2023-02-13T11:21:12;523.53;;;171.50;;
52642;SDS011;38531;53.296;6.614;2023-02-13T11:23:49;541.33;;;172.37;;
52642;SDS011;38531;53.296;6.614;2023-02-13T11:26:21;628.73;;;177.73;;
52642;SDS011;38531;53.296;6.614;2023-02-13T11:31:23;565.90;;;169.40;;
52642;SDS011;38531;53.296;6.614;2023-02-13T11:33:54;591.15;;;174.52;;
52642;SDS011;38531;53.296;6.614;2023-02-13T11:36:31;562.60;;;174.47;;
52642;SDS011;38531;53.296;6.614;2023-02-13T11:39:03;513.57;;;170.10;;
52642;SDS011;38531;53.296;6.614;2023-02-13T11:41:30;527.47;;;171.00;;
52642;SDS011;38531;53.296;6.614;2023-02-13T11:46:46;501.63;;;164.20;;
52642;SDS011;38531;53.296;6.614;2023-02-13T11:51:50;590.17;;;174.10;;
52642;SDS011;38531;53.296;6.614;2023-02-13T11:59:52;613.20;;;177.00;;
52642;SDS011;38531;53.296;6.614;2023-02-13T12:02:31;579.57;;;173.30;;
52642;SDS011;38531;53.296;6.614;2023-02-13T12:05:21;539.57;;;168.97;;
52642;SDS011;38531;53.296;6.614;2023-02-13T12:07:49;522.90;;;168.63;;
52642;SDS011;38531;53.296;6.614;2023-02-13T12:10:33;510.40;;;167.80;;
52642;SDS011;38531;53.296;6.614;2023-02-13T12:15:39;490.33;;;166.97;;
52642;SDS011;38531;53.296;6.614;2023-02-13T12:23:41;471.13;;;167.03;;
52642;SDS011;38531;53.296;6.614;2023-02-13T12:26:33;468.90;;;166.67;;
52642;SDS011;38531;53.296;6.614;2023-02-13T12:29:30;526.60;;;171.27;;
52642;SDS011;38531;53.296;6.614;2023-02-13T12:35:13;512.03;;;171.17;;
52642;SDS011;38531;53.296;6.614;2023-02-13T12:44:08;456.87;;;166.27;;
52642;SDS011;38531;53.296;6.614;2023-02-13T12:46:49;454.67;;;165.73;;
52642;SDS011;38531;53.296;6.614;2023-02-13T13:05:55;356.37;;;158.30;;
52642;SDS011;38531;53.296;6.614;2023-02-13T13:09:05;349.98;;;156.40;;
52642;SDS011;38531;53.296;6.614;2023-02-13T13:17:56;343.07;;;155.90;;
52642;SDS011;38531;53.296;6.614;2023-02-13T13:20:34;343.87;;;157.37;;
52642;SDS011;38531;53.296;6.614;2023-02-13T13:23:10;315.90;;;149.50;;
52642;SDS011;38531;53.296;6.614;2023-02-13T13:28:27;301.50;;;147.07;;
52642;SDS011;38531;53.296;6.614;2023-02-13T13:30:56;327.43;;;153.67;;
52642;SDS011;38531;53.296;6.614;2023-02-13T13:33:24;326.37;;;154.60;;
52642;SDS011;38531;53.296;6.614;2023-02-13T13:38:35;436.80;;;171.27;;
52642;SDS011;38531;53.296;6.614;2023-02-13T13:43:39;430.53;;;172.90;;
52642;SDS011;38531;53.296;6.614;2023-02-13T13:52:20;492.53;;;178.87;;
52642;SDS011;38531;53.296;6.614;2023-02-13T13:54:54;500.17;;;179.87;;
52642;SDS011;38531;53.296;6.614;2023-02-13T14:07:57;427.77;;;172.60;;
52642;SDS011;38531;53.296;6.614;2023-02-13T14:18:17;461.63;;;178.47;;
52642;SDS011;38531;53.296;6.614;2023-02-13T14:26:11;418.13;;;174.53;;
52642;SDS011;38531;53.296;6.614;2023-02-13T14:28:41;432.03;;;172.97;;
52642;SDS011;38531;53.296;6.614;2023-02-13T14:31:32;433.30;;;175.67;;
52642;SDS011;38531;53.296;6.614;2023-02-13T14:36:39;424.47;;;175.10;;
52642;SDS011;38531;53.296;6.614;2023-02-13T14:39:26;426.83;;;172.43;;
52642;SDS011;38531;53.296;6.614;2023-02-13T14:41:58;426.50;;;175.00;;
52642;SDS011;38531;53.296;6.614;2023-02-13T14:44:48;426.83;;;173.37;;
52642;SDS011;38531;53.296;6.614;2023-02-13T14:49:59;433.13;;;172.23;;
52642;SDS011;38531;53.296;6.614;2023-02-13T14:52:28;428.60;;;173.80;;
52642;SDS011;38531;53.296;6.614;2023-02-13T14:55:03;430.30;;;173.13;;
52642;SDS011;38531;53.296;6.614;2023-02-13T14:58:14;419.43;;;174.83;;
52642;SDS011;38531;53.296;6.614;2023-02-13T15:00:32;413.63;;;173.70;;
52642;SDS011;38531;53.296;6.614;2023-02-13T15:03:24;420.67;;;175.95;;
52642;SDS011;38531;53.296;6.614;2023-02-13T15:05:55;421.00;;;176.43;;
52642;SDS011;38531;53.296;6.614;2023-02-13T15:08:38;416.47;;;174.93;;
52642;SDS011;38531;53.296;6.614;2023-02-13T15:11:10;410.50;;;173.07;;
52642;SDS011;38531;53.296;6.614;2023-02-13T15:14:13;398.83;;;171.73;;
52642;SDS011;38531;53.296;6.614;2023-02-13T15:16:40;399.80;;;171.10;;
52642;SDS011;38531;53.296;6.614;2023-02-13T15:19:10;390.00;;;170.43;;
52642;SDS011;38531;53.296;6.614;2023-02-13T15:21:45;374.33;;;167.40;;
52642;SDS011;38531;53.296;6.614;2023-02-13T15:24:16;421.03;;;174.10;;
52642;SDS011;38531;53.296;6.614;2023-02-13T15:26:48;413.27;;;172.40;;
52642;SDS011;38531;53.296;6.614;2023-02-13T15:29:19;380.95;;;168.55;;
52642;SDS011;38531;53.296;6.614;2023-02-13T15:31:44;387.10;;;169.07;;
52642;SDS011;38531;53.296;6.614;2023-02-13T15:34:21;374.93;;;168.70;;
52642;SDS011;38531;53.296;6.614;2023-02-13T15:36:52;375.23;;;168.20;;
52642;SDS011;38531;53.296;6.614;2023-02-13T15:39:20;383.47;;;169.40;;
52642;SDS011;38531;53.296;6.614;2023-02-13T15:41:50;378.50;;;168.80;;
52642;SDS011;38531;53.296;6.614;2023-02-13T15:44:30;416.57;;;173.50;;
52642;SDS011;38531;53.296;6.614;2023-02-13T15:49:52;429.50;;;173.93;;
52642;SDS011;38531;53.296;6.614;2023-02-13T15:54:51;449.77;;;174.80;;
52642;SDS011;38531;53.296;6.614;2023-02-13T15:57:18;431.20;;;172.30;;
52642;SDS011;38531;53.296;6.614;2023-02-13T15:59:45;433.07;;;175.00;;
52642;SDS011;38531;53.296;6.614;2023-02-13T16:02:18;436.03;;;173.43;;
52642;SDS011;38531;53.296;6.614;2023-02-13T16:05:00;434.00;;;171.23;;
52642;SDS011;38531;53.296;6.614;2023-02-13T16:07:42;444.57;;;174.47;;
52642;SDS011;38531;53.296;6.614;2023-02-13T16:10:16;449.43;;;175.03;;
52642;SDS011;38531;53.296;6.614;2023-02-13T16:12:57;436.20;;;174.40;;
52642;SDS011;38531;53.296;6.614;2023-02-13T16:15:25;447.37;;;176.13;;
52642;SDS011;38531;53.296;6.614;2023-02-13T16:17:54;449.33;;;177.77;;
52642;SDS011;38531;53.296;6.614;2023-02-13T16:20:23;465.73;;;177.43;;
52642;SDS011;38531;53.296;6.614;2023-02-13T16:22:52;476.50;;;177.37;;
52642;SDS011;38531;53.296;6.614;2023-02-13T16:25:25;487.00;;;185.10;;
52642;SDS011;38531;53.296;6.614;2023-02-13T16:27:58;433.97;;;175.80;;
52642;SDS011;38531;53.296;6.614;2023-02-13T16:30:31;442.03;;;173.90;;
52642;SDS011;38531;53.296;6.614;2023-02-13T16:33:18;442.07;;;173.00;;
52642;SDS011;38531;53.296;6.614;2023-02-13T16:35:59;437.73;;;174.77;;
52642;SDS011;38531;53.296;6.614;2023-02-13T16:38:46;428.17;;;174.63;;
52642;SDS011;38531;53.296;6.614;2023-02-13T16:43:46;389.03;;;173.03;;
52642;SDS011;38531;53.296;6.614;2023-02-13T16:51:22;413.20;;;173.10;;
52642;SDS011;38531;53.296;6.614;2023-02-13T16:54:05;383.57;;;168.10;;
52642;SDS011;38531;53.296;6.614;2023-02-13T16:56:46;387.30;;;169.30;;
52642;SDS011;38531;53.296;6.614;2023-02-13T17:02:15;329.43;;;155.43;;
52642;SDS011;38531;53.296;6.614;2023-02-13T17:04:54;362.17;;;163.53;;
52642;SDS011;38531;53.296;6.614;2023-02-13T17:07:29;375.50;;;164.50;;
52642;SDS011;38531;53.296;6.614;2023-02-13T17:09:59;353.10;;;162.17;;
52642;SDS011;38531;53.296;6.614;2023-02-13T17:12:28;363.37;;;163.00;;
52642;SDS011;38531;53.296;6.614;2023-02-13T17:14:56;352.50;;;160.63;;
52642;SDS011;38531;53.296;6.614;2023-02-13T17:17:23;350.00;;;160.40;;
52642;SDS011;38531;53.296;6.614;2023-02-13T17:19:52;356.77;;;163.17;;
52642;SDS011;38531;53.296;6.614;2023-02-13T17:24:56;366.90;;;162.70;;
52642;SDS011;38531;53.296;6.614;2023-02-13T17:27:22;344.40;;;159.30;;
52642;SDS011;38531;53.296;6.614;2023-02-13T17:29:48;316.53;;;150.83;;
52642;SDS011;38531;53.296;6.614;2023-02-13T17:32:18;318.27;;;152.17;;
52642;SDS011;38531;53.296;6.614;2023-02-13T17:34:47;329.30;;;153.43;;
52642;SDS011;38531;53.296;6.614;2023-02-13T17:37:25;295.20;;;145.07;;
52642;SDS011;38531;53.296;6.614;2023-02-13T17:39:52;339.30;;;156.60;;
52642;SDS011;38531;53.296;6.614;2023-02-13T17:42:20;353.87;;;162.43;;
52642;SDS011;38531;53.296;6.614;2023-02-13T17:44:48;361.80;;;162.50;;